Terminal Aerodrome Forecast
Issued by NWS Paducah, KY

Home | Current Version | Previous Version | Text Only | Print | Product List | Glossary On
Versions: 1 2 3 4 5 6 7 8 9 10 11 12 13 14
000
FTUS43 KPAH 310520
TAFPAH
TAF
KPAH 310520Z 3106/0106 00000KT P6SM SKC
     FM311400 33006KT P6SM SCT035
      TEMPO 3116/3120 BKN035
     FM010000 VRB04KT P6SM SCT040 BKN100=

USA.gov is the U.S. government's official web portal to all federal, state and local government web resources and services.